Capitol Logistics 420




MKJP
Norman Manley International Airport
Kingston, JM
KMIA
Miami International Airport
Miami, US

Activity Log

Date Flight Route Aircraft Duration
01/08/2022 CPX420 KEYNO2 LIBEX EPSIM UM779 ALTIB UM779 ZEUSS VIICE1 B752 1h 31m
12/31/2019 CPX420 RADOK L417 BORDO FOWEE B752 1h 42m
10/09/2019 CPX420 N0434F240 LEXUV3 RADOK L417 BEMOL/N0458F380 UL417 BORDO FOWEE FLIPR6 B752 1h 41m
09/08/2019 CPX244 UCA UA301 URSUS FLIPR6 B763 1h 23m
08/13/2019 CPX244 LEXUV3 RADOK URSUS FOWEE FLIPR6 B763 1h 36m
07/04/2019 CPX244 UCA UA301 URSUS FLIPR6 B763 1h 37m
06/20/2019 CPX420 UCA UA301 URSUS FLIPR6 B752 1h 25m
06/03/2019 CPX420 UCA UA301 URSUS FLIPR5 B752 1h 53m
05/10/2019 CPX244 UCA UA301 URSUS FLIPR6 B763 1h 37m
04/19/2019 CPX420 BEXEN UM347 ZEUSS Y325 FOWEE FLIPR6 B752 1h 33m
04/15/2019 CPX420 UCA UA301 URSUS FLIPR6 B752 1h 48m
04/06/2019 CPX420 UCA UA301 URSUS FLIPR6 B752 1h 39m
04/01/2019 CPX420 UCA UA301 URSUS FLIPR6 B752 1h 43m
03/13/2019 CPX244 UCA UA301 URSUS FLIPR6 B763 1h 48m
03/03/2019 CPX244 UCA UA301 URSUS FLIPR6 B763 1h 49m
01/31/2019 CPX420 RADOK6 RADOK UCA/N0458F350 UA301 URSUS FOWEE9 B752 1h 38m
01/15/2019 CPX244 MLY6 KEMBO R640 SIA G430 UCA/N0501F230 A301 URSUS FOWEE9 B763 1h 34m

Route Details

Aircraft Information
Group: Narrowbodies
Types: B738,B752
Route Data
Demand: V
Distance: 511nm
Duration: 1h 25m
Recm'd Route: UCA UA301 URSUS FLIPR6
Origin Wx: MKJP 270500Z 11018KT 9999 FEW022 28/22 Q1015
Dest. Wx: KMIA 270553Z 11011KT 10SM FEW019 SCT050 SCT080 26/23 A3004 RMK AO2 SLP172 T02610228 10272 20261 58008 $
Notes:

Financial History
Total Freight: 1,056,315lbs
Average Load: 62,136lbs/flt
Fuel Used: 233,519lbs
Avg. Fuel Used: 13,736lbs/flt
Fuel Expense: $123,043
Avg. Fuel Expense: $7,238
Avg. Fuel Cost: $0.51/lbs
Total Gross Income: $1,475,269
Pilot Pay: $2,493
Total Expenses: $166,903
Total Revenue: $1,180,297
Average Revenue: $86,780.50